sensor_id;sensor_type;location;lat;lon;timestamp;P1;durP1;ratioP1;P2;durP2;ratioP2
61536;SDS011;48695;53.480;-6.300;2022-07-18T00:02:01;0.00;;;0.00;;
61536;SDS011;48695;53.480;-6.300;2022-07-18T00:04:27;0.10;;;0.10;;
61536;SDS011;48695;53.480;-6.300;2022-07-18T00:06:53;0.05;;;0.05;;
61536;SDS011;48695;53.480;-6.300;2022-07-18T00:09:20;0.10;;;0.10;;
61536;SDS011;48695;53.480;-6.300;2022-07-18T00:11:47;0.10;;;0.10;;
61536;SDS011;48695;53.480;-6.300;2022-07-18T00:14:13;0.00;;;0.00;;
61536;SDS011;48695;53.480;-6.300;2022-07-18T00:16:38;0.10;;;0.10;;
61536;SDS011;48695;53.480;-6.300;2022-07-18T00:19:04;0.10;;;0.10;;
61536;SDS011;48695;53.480;-6.300;2022-07-18T00:21:31;0.00;;;0.00;;
61536;SDS011;48695;53.480;-6.300;2022-07-18T00:23:57;0.00;;;0.00;;
61536;SDS011;48695;53.480;-6.300;2022-07-18T00:26:22;0.10;;;0.10;;
61536;SDS011;48695;53.480;-6.300;2022-07-18T00:28:48;0.10;;;0.10;;
61536;SDS011;48695;53.480;-6.300;2022-07-18T00:31:13;0.10;;;0.10;;
61536;SDS011;48695;53.480;-6.300;2022-07-18T00:33:38;0.10;;;0.10;;
61536;SDS011;48695;53.480;-6.300;2022-07-18T00:36:04;0.00;;;0.00;;
61536;SDS011;48695;53.480;-6.300;2022-07-18T00:38:30;0.00;;;0.00;;
61536;SDS011;48695;53.480;-6.300;2022-07-18T00:40:55;0.00;;;0.00;;
61536;SDS011;48695;53.480;-6.300;2022-07-18T00:43:20;0.00;;;0.00;;
61536;SDS011;48695;53.480;-6.300;2022-07-18T00:45:47;0.10;;;0.10;;
61536;SDS011;48695;53.480;-6.300;2022-07-18T00:48:14;0.05;;;0.05;;
61536;SDS011;48695;53.480;-6.300;2022-07-18T00:50:41;0.00;;;0.00;;
61536;SDS011;48695;53.480;-6.300;2022-07-18T00:53:08;0.10;;;0.10;;
61536;SDS011;48695;53.480;-6.300;2022-07-18T00:55:37;0.00;;;0.00;;
61536;SDS011;48695;53.480;-6.300;2022-07-18T00:58:08;0.10;;;0.10;;
61536;SDS011;48695;53.480;-6.300;2022-07-18T01:00:35;0.00;;;0.00;;
61536;SDS011;48695;53.480;-6.300;2022-07-18T01:03:21;0.00;;;0.00;;
61536;SDS011;48695;53.480;-6.300;2022-07-18T01:05:47;0.10;;;0.10;;
61536;SDS011;48695;53.480;-6.300;2022-07-18T01:08:13;0.05;;;0.05;;
61536;SDS011;48695;53.480;-6.300;2022-07-18T01:10:38;0.00;;;0.00;;
61536;SDS011;48695;53.480;-6.300;2022-07-18T01:13:04;0.00;;;0.00;;
61536;SDS011;48695;53.480;-6.300;2022-07-18T01:15:29;0.10;;;0.10;;
61536;SDS011;48695;53.480;-6.300;2022-07-18T01:17:55;0.00;;;0.00;;
61536;SDS011;48695;53.480;-6.300;2022-07-18T01:20:20;0.00;;;0.00;;
61536;SDS011;48695;53.480;-6.300;2022-07-18T01:22:45;0.00;;;0.00;;
61536;SDS011;48695;53.480;-6.300;2022-07-18T01:25:12;0.08;;;0.08;;
61536;SDS011;48695;53.480;-6.300;2022-07-18T01:27:42;0.00;;;0.00;;
61536;SDS011;48695;53.480;-6.300;2022-07-18T01:30:07;0.00;;;0.00;;
61536;SDS011;48695;53.480;-6.300;2022-07-18T01:32:34;0.00;;;0.00;;
61536;SDS011;48695;53.480;-6.300;2022-07-18T01:34:59;0.00;;;0.00;;
61536;SDS011;48695;53.480;-6.300;2022-07-18T01:37:25;0.00;;;0.00;;
61536;SDS011;48695;53.480;-6.300;2022-07-18T01:39:50;0.10;;;0.10;;
61536;SDS011;48695;53.480;-6.300;2022-07-18T01:42:16;0.00;;;0.00;;
61536;SDS011;48695;53.480;-6.300;2022-07-18T01:44:42;0.10;;;0.10;;
61536;SDS011;48695;53.480;-6.300;2022-07-18T01:47:09;0.00;;;0.00;;
61536;SDS011;48695;53.480;-6.300;2022-07-18T01:49:35;0.00;;;0.00;;
61536;SDS011;48695;53.480;-6.300;2022-07-18T01:52:02;0.00;;;0.00;;
61536;SDS011;48695;53.480;-6.300;2022-07-18T01:54:29;0.10;;;0.10;;
61536;SDS011;48695;53.480;-6.300;2022-07-18T01:59:22;0.00;;;0.00;;
61536;SDS011;48695;53.480;-6.300;2022-07-18T02:01:48;0.10;;;0.10;;
61536;SDS011;48695;53.480;-6.300;2022-07-18T02:04:14;0.10;;;0.10;;
61536;SDS011;48695;53.480;-6.300;2022-07-18T02:06:40;0.10;;;0.10;;
61536;SDS011;48695;53.480;-6.300;2022-07-18T02:09:05;0.00;;;0.00;;
61536;SDS011;48695;53.480;-6.300;2022-07-18T02:11:32;0.00;;;0.00;;
61536;SDS011;48695;53.480;-6.300;2022-07-18T02:13:58;0.10;;;0.10;;
61536;SDS011;48695;53.480;-6.300;2022-07-18T02:16:24;0.10;;;0.10;;
61536;SDS011;48695;53.480;-6.300;2022-07-18T02:18:52;0.10;;;0.10;;
61536;SDS011;48695;53.480;-6.300;2022-07-18T02:21:17;0.00;;;0.00;;
61536;SDS011;48695;53.480;-6.300;2022-07-18T02:23:43;0.05;;;0.05;;
61536;SDS011;48695;53.480;-6.300;2022-07-18T02:26:09;0.00;;;0.00;;
61536;SDS011;48695;53.480;-6.300;2022-07-18T02:28:35;0.00;;;0.00;;
61536;SDS011;48695;53.480;-6.300;2022-07-18T02:31:01;0.00;;;0.00;;
61536;SDS011;48695;53.480;-6.300;2022-07-18T02:33:27;0.00;;;0.00;;
61536;SDS011;48695;53.480;-6.300;2022-07-18T02:35:53;0.00;;;0.00;;
61536;SDS011;48695;53.480;-6.300;2022-07-18T02:38:18;0.00;;;0.00;;
61536;SDS011;48695;53.480;-6.300;2022-07-18T02:40:43;0.00;;;0.00;;
61536;SDS011;48695;53.480;-6.300;2022-07-18T02:43:09;0.00;;;0.00;;
61536;SDS011;48695;53.480;-6.300;2022-07-18T02:45:34;0.00;;;0.00;;
61536;SDS011;48695;53.480;-6.300;2022-07-18T02:48:00;0.10;;;0.10;;
61536;SDS011;48695;53.480;-6.300;2022-07-18T02:50:26;0.00;;;0.00;;
61536;SDS011;48695;53.480;-6.300;2022-07-18T02:52:52;0.00;;;0.00;;
61536;SDS011;48695;53.480;-6.300;2022-07-18T02:55:17;0.03;;;0.03;;
61536;SDS011;48695;53.480;-6.300;2022-07-18T02:57:43;0.00;;;0.00;;
61536;SDS011;48695;53.480;-6.300;2022-07-18T03:00:09;0.10;;;0.10;;
61536;SDS011;48695;53.480;-6.300;2022-07-18T03:02:36;0.10;;;0.10;;
61536;SDS011;48695;53.480;-6.300;2022-07-18T03:05:03;0.00;;;0.00;;
61536;SDS011;48695;53.480;-6.300;2022-07-18T03:07:29;0.00;;;0.00;;
61536;SDS011;48695;53.480;-6.300;2022-07-18T03:09:55;0.10;;;0.10;;
61536;SDS011;48695;53.480;-6.300;2022-07-18T03:12:20;0.10;;;0.10;;
61536;SDS011;48695;53.480;-6.300;2022-07-18T03:14:46;0.00;;;0.00;;
61536;SDS011;48695;53.480;-6.300;2022-07-18T03:17:11;0.10;;;0.10;;
61536;SDS011;48695;53.480;-6.300;2022-07-18T03:19:37;0.00;;;0.00;;
61536;SDS011;48695;53.480;-6.300;2022-07-18T03:22:03;0.00;;;0.00;;
61536;SDS011;48695;53.480;-6.300;2022-07-18T03:24:29;0.00;;;0.00;;
61536;SDS011;48695;53.480;-6.300;2022-07-18T03:26:55;0.00;;;0.00;;
61536;SDS011;48695;53.480;-6.300;2022-07-18T03:29:21;0.10;;;0.10;;
61536;SDS011;48695;53.480;-6.300;2022-07-18T03:31:47;0.05;;;0.05;;
61536;SDS011;48695;53.480;-6.300;2022-07-18T03:34:12;0.10;;;0.10;;
61536;SDS011;48695;53.480;-6.300;2022-07-18T03:36:38;0.00;;;0.00;;
61536;SDS011;48695;53.480;-6.300;2022-07-18T03:39:04;0.10;;;0.10;;
61536;SDS011;48695;53.480;-6.300;2022-07-18T03:41:30;0.00;;;0.00;;
61536;SDS011;48695;53.480;-6.300;2022-07-18T03:43:57;0.00;;;0.00;;
61536;SDS011;48695;53.480;-6.300;2022-07-18T03:46:22;0.00;;;0.00;;
61536;SDS011;48695;53.480;-6.300;2022-07-18T03:48:48;0.00;;;0.00;;
61536;SDS011;48695;53.480;-6.300;2022-07-18T03:51:13;0.00;;;0.00;;
61536;SDS011;48695;53.480;-6.300;2022-07-18T03:53:39;0.05;;;0.05;;
61536;SDS011;48695;53.480;-6.300;2022-07-18T03:56:04;0.00;;;0.00;;
61536;SDS011;48695;53.480;-6.300;2022-07-18T03:58:30;0.08;;;0.08;;
61536;SDS011;48695;53.480;-6.300;2022-07-18T04:00:55;0.00;;;0.00;;
61536;SDS011;48695;53.480;-6.300;2022-07-18T04:03:21;0.03;;;0.03;;
61536;SDS011;48695;53.480;-6.300;2022-07-18T04:05:47;0.00;;;0.00;;
61536;SDS011;48695;53.480;-6.300;2022-07-18T04:08:12;0.00;;;0.00;;
61536;SDS011;48695;53.480;-6.300;2022-07-18T04:10:37;0.08;;;0.08;;
61536;SDS011;48695;53.480;-6.300;2022-07-18T04:13:05;0.00;;;0.00;;
61536;SDS011;48695;53.480;-6.300;2022-07-18T04:15:31;0.00;;;0.00;;
61536;SDS011;48695;53.480;-6.300;2022-07-18T04:17:57;0.00;;;0.00;;
61536;SDS011;48695;53.480;-6.300;2022-07-18T04:20:22;0.00;;;0.00;;
61536;SDS011;48695;53.480;-6.300;2022-07-18T04:22:49;0.05;;;0.05;;
61536;SDS011;48695;53.480;-6.300;2022-07-18T04:25:17;0.00;;;0.00;;
61536;SDS011;48695;53.480;-6.300;2022-07-18T04:30:10;0.00;;;0.00;;
61536;SDS011;48695;53.480;-6.300;2022-07-18T04:32:36;0.00;;;0.00;;
61536;SDS011;48695;53.480;-6.300;2022-07-18T04:35:01;0.00;;;0.00;;
61536;SDS011;48695;53.480;-6.300;2022-07-18T04:37:29;0.10;;;0.10;;
61536;SDS011;48695;53.480;-6.300;2022-07-18T04:39:56;0.00;;;0.00;;
61536;SDS011;48695;53.480;-6.300;2022-07-18T04:42:21;0.00;;;0.00;;
61536;SDS011;48695;53.480;-6.300;2022-07-18T04:44:47;0.00;;;0.00;;
61536;SDS011;48695;53.480;-6.300;2022-07-18T04:47:12;0.00;;;0.00;;
61536;SDS011;48695;53.480;-6.300;2022-07-18T04:49:38;0.00;;;0.00;;
61536;SDS011;48695;53.480;-6.300;2022-07-18T04:52:03;0.00;;;0.00;;
61536;SDS011;48695;53.480;-6.300;2022-07-18T04:54:29;0.00;;;0.00;;
61536;SDS011;48695;53.480;-6.300;2022-07-18T04:56:54;0.00;;;0.00;;
61536;SDS011;48695;53.480;-6.300;2022-07-18T04:59:19;0.00;;;0.00;;
61536;SDS011;48695;53.480;-6.300;2022-07-18T05:01:45;0.10;;;0.10;;
61536;SDS011;48695;53.480;-6.300;2022-07-18T05:04:10;0.10;;;0.10;;
61536;SDS011;48695;53.480;-6.300;2022-07-18T05:06:36;0.00;;;0.00;;
61536;SDS011;48695;53.480;-6.300;2022-07-18T05:09:01;0.00;;;0.00;;
61536;SDS011;48695;53.480;-6.300;2022-07-18T05:11:27;0.00;;;0.00;;
61536;SDS011;48695;53.480;-6.300;2022-07-18T05:13:52;0.00;;;0.00;;
61536;SDS011;48695;53.480;-6.300;2022-07-18T05:16:18;0.10;;;0.10;;
61536;SDS011;48695;53.480;-6.300;2022-07-18T05:18:43;0.10;;;0.10;;
61536;SDS011;48695;53.480;-6.300;2022-07-18T05:21:08;0.10;;;0.10;;
61536;SDS011;48695;53.480;-6.300;2022-07-18T05:23:34;0.08;;;0.08;;
61536;SDS011;48695;53.480;-6.300;2022-07-18T05:25:59;0.00;;;0.00;;
61536;SDS011;48695;53.480;-6.300;2022-07-18T05:28:24;0.10;;;0.10;;
61536;SDS011;48695;53.480;-6.300;2022-07-18T05:30:50;0.10;;;0.10;;
61536;SDS011;48695;53.480;-6.300;2022-07-18T05:33:16;0.00;;;0.00;;
61536;SDS011;48695;53.480;-6.300;2022-07-18T05:35:41;0.08;;;0.08;;
61536;SDS011;48695;53.480;-6.300;2022-07-18T05:38:07;0.00;;;0.00;;
61536;SDS011;48695;53.480;-6.300;2022-07-18T05:40:32;0.00;;;0.00;;
61536;SDS011;48695;53.480;-6.300;2022-07-18T05:42:58;0.00;;;0.00;;
61536;SDS011;48695;53.480;-6.300;2022-07-18T05:45:23;0.00;;;0.00;;
61536;SDS011;48695;53.480;-6.300;2022-07-18T05:47:49;0.00;;;0.00;;
61536;SDS011;48695;53.480;-6.300;2022-07-18T05:50:15;0.10;;;0.10;;
61536;SDS011;48695;53.480;-6.300;2022-07-18T05:52:41;0.00;;;0.00;;
61536;SDS011;48695;53.480;-6.300;2022-07-18T05:55:06;0.10;;;0.10;;
61536;SDS011;48695;53.480;-6.300;2022-07-18T05:57:32;0.00;;;0.00;;
61536;SDS011;48695;53.480;-6.300;2022-07-18T05:59:58;0.00;;;0.00;;
61536;SDS011;48695;53.480;-6.300;2022-07-18T06:02:23;0.10;;;0.10;;
61536;SDS011;48695;53.480;-6.300;2022-07-18T06:04:49;0.00;;;0.00;;
61536;SDS011;48695;53.480;-6.300;2022-07-18T06:07:14;0.00;;;0.00;;
61536;SDS011;48695;53.480;-6.300;2022-07-18T06:09:40;0.00;;;0.00;;
61536;SDS011;48695;53.480;-6.300;2022-07-18T06:12:05;0.00;;;0.00;;
61536;SDS011;48695;53.480;-6.300;2022-07-18T06:14:31;0.08;;;0.08;;
61536;SDS011;48695;53.480;-6.300;2022-07-18T06:16:57;0.00;;;0.00;;
61536;SDS011;48695;53.480;-6.300;2022-07-18T06:19:22;0.05;;;0.05;;
61536;SDS011;48695;53.480;-6.300;2022-07-18T06:21:49;0.00;;;0.00;;
61536;SDS011;48695;53.480;-6.300;2022-07-18T06:24:15;0.00;;;0.00;;
61536;SDS011;48695;53.480;-6.300;2022-07-18T06:26:40;0.00;;;0.00;;
61536;SDS011;48695;53.480;-6.300;2022-07-18T06:29:06;0.00;;;0.00;;
61536;SDS011;48695;53.480;-6.300;2022-07-18T06:31:31;0.00;;;0.00;;
61536;SDS011;48695;53.480;-6.300;2022-07-18T06:33:56;0.00;;;0.00;;
61536;SDS011;48695;53.480;-6.300;2022-07-18T06:36:22;0.00;;;0.00;;
61536;SDS011;48695;53.480;-6.300;2022-07-18T06:38:49;0.00;;;0.00;;
61536;SDS011;48695;53.480;-6.300;2022-07-18T06:41:15;0.10;;;0.10;;
61536;SDS011;48695;53.480;-6.300;2022-07-18T06:43:41;0.05;;;0.05;;
61536;SDS011;48695;53.480;-6.300;2022-07-18T06:46:07;0.00;;;0.00;;
61536;SDS011;48695;53.480;-6.300;2022-07-18T06:48:32;0.10;;;0.10;;
61536;SDS011;48695;53.480;-6.300;2022-07-18T06:51:00;0.00;;;0.00;;
61536;SDS011;48695;53.480;-6.300;2022-07-18T06:53:26;0.00;;;0.00;;
61536;SDS011;48695;53.480;-6.300;2022-07-18T06:55:52;0.10;;;0.10;;
61536;SDS011;48695;53.480;-6.300;2022-07-18T06:58:18;0.10;;;0.10;;
61536;SDS011;48695;53.480;-6.300;2022-07-18T07:00:43;0.00;;;0.00;;
61536;SDS011;48695;53.480;-6.300;2022-07-18T07:03:09;0.10;;;0.10;;
61536;SDS011;48695;53.480;-6.300;2022-07-18T07:05:34;0.10;;;0.10;;
61536;SDS011;48695;53.480;-6.300;2022-07-18T07:07:59;0.00;;;0.00;;
61536;SDS011;48695;53.480;-6.300;2022-07-18T07:10:25;0.10;;;0.10;;
61536;SDS011;48695;53.480;-6.300;2022-07-18T07:12:51;0.03;;;0.03;;
61536;SDS011;48695;53.480;-6.300;2022-07-18T07:15:20;0.10;;;0.10;;
61536;SDS011;48695;53.480;-6.300;2022-07-18T07:17:46;0.10;;;0.10;;
61536;SDS011;48695;53.480;-6.300;2022-07-18T07:20:12;0.00;;;0.00;;
61536;SDS011;48695;53.480;-6.300;2022-07-18T07:22:42;0.10;;;0.10;;
61536;SDS011;48695;53.480;-6.300;2022-07-18T07:25:12;0.10;;;0.10;;
61536;SDS011;48695;53.480;-6.300;2022-07-18T07:27:38;0.00;;;0.00;;
61536;SDS011;48695;53.480;-6.300;2022-07-18T07:30:04;0.00;;;0.00;;
61536;SDS011;48695;53.480;-6.300;2022-07-18T07:32:33;0.00;;;0.00;;
61536;SDS011;48695;53.480;-6.300;2022-07-18T07:35:00;0.10;;;0.10;;
61536;SDS011;48695;53.480;-6.300;2022-07-18T07:37:25;0.10;;;0.10;;
61536;SDS011;48695;53.480;-6.300;2022-07-18T07:39:51;0.10;;;0.10;;
61536;SDS011;48695;53.480;-6.300;2022-07-18T07:42:16;0.10;;;0.10;;
61536;SDS011;48695;53.480;-6.300;2022-07-18T07:44:42;0.05;;;0.05;;
61536;SDS011;48695;53.480;-6.300;2022-07-18T07:47:07;0.10;;;0.10;;
61536;SDS011;48695;53.480;-6.300;2022-07-18T07:49:32;0.10;;;0.10;;
61536;SDS011;48695;53.480;-6.300;2022-07-18T07:51:59;0.10;;;0.10;;
61536;SDS011;48695;53.480;-6.300;2022-07-18T07:54:25;0.10;;;0.10;;
61536;SDS011;48695;53.480;-6.300;2022-07-18T07:56:51;0.10;;;0.10;;
61536;SDS011;48695;53.480;-6.300;2022-07-18T07:59:16;0.10;;;0.10;;
61536;SDS011;48695;53.480;-6.300;2022-07-18T08:01:42;0.10;;;0.10;;
61536;SDS011;48695;53.480;-6.300;2022-07-18T08:04:08;0.05;;;0.05;;
61536;SDS011;48695;53.480;-6.300;2022-07-18T08:06:33;0.10;;;0.10;;
61536;SDS011;48695;53.480;-6.300;2022-07-18T08:08:58;0.10;;;0.10;;
61536;SDS011;48695;53.480;-6.300;2022-07-18T08:11:24;0.10;;;0.10;;
61536;SDS011;48695;53.480;-6.300;2022-07-18T08:13:50;0.10;;;0.10;;
61536;SDS011;48695;53.480;-6.300;2022-07-18T08:16:15;0.10;;;0.10;;
61536;SDS011;48695;53.480;-6.300;2022-07-18T08:18:41;0.05;;;0.05;;
61536;SDS011;48695;53.480;-6.300;2022-07-18T08:21:06;0.05;;;0.05;;
61536;SDS011;48695;53.480;-6.300;2022-07-18T08:23:31;0.10;;;0.10;;
61536;SDS011;48695;53.480;-6.300;2022-07-18T08:25:57;0.10;;;0.10;;
61536;SDS011;48695;53.480;-6.300;2022-07-18T08:28:22;0.05;;;0.05;;
61536;SDS011;48695;53.480;-6.300;2022-07-18T08:30:49;0.10;;;0.10;;
61536;SDS011;48695;53.480;-6.300;2022-07-18T08:33:15;0.00;;;0.00;;
61536;SDS011;48695;53.480;-6.300;2022-07-18T08:35:40;0.10;;;0.10;;
61536;SDS011;48695;53.480;-6.300;2022-07-18T08:38:06;0.00;;;0.00;;
61536;SDS011;48695;53.480;-6.300;2022-07-18T08:40:32;0.03;;;0.03;;
61536;SDS011;48695;53.480;-6.300;2022-07-18T08:42:58;0.10;;;0.10;;
61536;SDS011;48695;53.480;-6.300;2022-07-18T08:45:24;0.08;;;0.08;;
61536;SDS011;48695;53.480;-6.300;2022-07-18T08:47:50;0.10;;;0.10;;
61536;SDS011;48695;53.480;-6.300;2022-07-18T08:50:17;0.00;;;0.00;;
61536;SDS011;48695;53.480;-6.300;2022-07-18T08:52:43;0.10;;;0.10;;
61536;SDS011;48695;53.480;-6.300;2022-07-18T08:55:09;0.00;;;0.00;;
61536;SDS011;48695;53.480;-6.300;2022-07-18T08:57:36;0.10;;;0.10;;
61536;SDS011;48695;53.480;-6.300;2022-07-18T09:00:05;0.10;;;0.10;;
61536;SDS011;48695;53.480;-6.300;2022-07-18T09:02:32;0.10;;;0.10;;
61536;SDS011;48695;53.480;-6.300;2022-07-18T09:04:59;0.10;;;0.10;;
61536;SDS011;48695;53.480;-6.300;2022-07-18T09:07:27;0.00;;;0.00;;
61536;SDS011;48695;53.480;-6.300;2022-07-18T09:09:56;0.00;;;0.00;;
61536;SDS011;48695;53.480;-6.300;2022-07-18T09:12:24;0.00;;;0.00;;
61536;SDS011;48695;53.480;-6.300;2022-07-18T09:14:54;0.08;;;0.08;;
61536;SDS011;48695;53.480;-6.300;2022-07-18T09:17:26;0.10;;;0.10;;
61536;SDS011;48695;53.480;-6.300;2022-07-18T09:20:01;0.10;;;0.10;;
61536;SDS011;48695;53.480;-6.300;2022-07-18T09:22:37;0.10;;;0.10;;
61536;SDS011;48695;53.480;-6.300;2022-07-18T09:25:08;0.10;;;0.10;;
61536;SDS011;48695;53.480;-6.300;2022-07-18T09:27:42;0.00;;;0.00;;
61536;SDS011;48695;53.480;-6.300;2022-07-18T09:30:22;0.05;;;0.05;;
61536;SDS011;48695;53.480;-6.300;2022-07-18T09:35:29;0.10;;;0.10;;
61536;SDS011;48695;53.480;-6.300;2022-07-18T09:38:07;0.00;;;0.00;;
61536;SDS011;48695;53.480;-6.300;2022-07-18T09:40:37;0.10;;;0.10;;
61536;SDS011;48695;53.480;-6.300;2022-07-18T09:43:07;0.10;;;0.10;;
61536;SDS011;48695;53.480;-6.300;2022-07-18T09:45:43;0.10;;;0.10;;
61536;SDS011;48695;53.480;-6.300;2022-07-18T09:48:13;0.10;;;0.10;;
61536;SDS011;48695;53.480;-6.300;2022-07-18T09:55:54;0.10;;;0.10;;
61536;SDS011;48695;53.480;-6.300;2022-07-18T09:58:22;0.10;;;0.10;;
61536;SDS011;48695;53.480;-6.300;2022-07-18T10:00:50;0.10;;;0.10;;
61536;SDS011;48695;53.480;-6.300;2022-07-18T10:03:16;0.00;;;0.00;;
61536;SDS011;48695;53.480;-6.300;2022-07-18T10:05:44;0.05;;;0.05;;
61536;SDS011;48695;53.480;-6.300;2022-07-18T10:08:12;0.10;;;0.10;;
61536;SDS011;48695;53.480;-6.300;2022-07-18T10:10:39;0.00;;;0.00;;
61536;SDS011;48695;53.480;-6.300;2022-07-18T10:13:06;0.10;;;0.10;;
61536;SDS011;48695;53.480;-6.300;2022-07-18T10:18:02;0.00;;;0.00;;
61536;SDS011;48695;53.480;-6.300;2022-07-18T10:23:01;0.00;;;0.00;;
61536;SDS011;48695;53.480;-6.300;2022-07-18T10:25:32;0.08;;;0.08;;
61536;SDS011;48695;53.480;-6.300;2022-07-18T10:28:08;0.10;;;0.10;;
61536;SDS011;48695;53.480;-6.300;2022-07-18T10:30:43;0.00;;;0.00;;
61536;SDS011;48695;53.480;-6.300;2022-07-18T10:36:08;0.00;;;0.00;;
61536;SDS011;48695;53.480;-6.300;2022-07-18T10:38:34;0.10;;;0.10;;
61536;SDS011;48695;53.480;-6.300;2022-07-18T10:41:01;0.10;;;0.10;;
61536;SDS011;48695;53.480;-6.300;2022-07-18T10:45:54;0.10;;;0.10;;
61536;SDS011;48695;53.480;-6.300;2022-07-18T10:51:01;0.10;;;0.10;;
61536;SDS011;48695;53.480;-6.300;2022-07-18T10:56:19;0.10;;;0.10;;
61536;SDS011;48695;53.480;-6.300;2022-07-18T11:01:14;0.10;;;0.10;;
61536;SDS011;48695;53.480;-6.300;2022-07-18T11:03:41;0.10;;;0.10;;
61536;SDS011;48695;53.480;-6.300;2022-07-18T11:06:07;0.10;;;0.10;;
61536;SDS011;48695;53.480;-6.300;2022-07-18T11:08:32;0.10;;;0.10;;
61536;SDS011;48695;53.480;-6.300;2022-07-18T11:16:06;0.10;;;0.10;;
61536;SDS011;48695;53.480;-6.300;2022-07-18T11:21:17;0.10;;;0.10;;
61536;SDS011;48695;53.480;-6.300;2022-07-18T11:24:00;0.10;;;0.10;;
61536;SDS011;48695;53.480;-6.300;2022-07-18T11:26:25;0.20;;;0.20;;
61536;SDS011;48695;53.480;-6.300;2022-07-18T11:31:24;0.10;;;0.10;;
61536;SDS011;48695;53.480;-6.300;2022-07-18T11:33:50;0.10;;;0.10;;
61536;SDS011;48695;53.480;-6.300;2022-07-18T11:38:50;0.10;;;0.10;;
61536;SDS011;48695;53.480;-6.300;2022-07-18T11:41:18;0.10;;;0.10;;
61536;SDS011;48695;53.480;-6.300;2022-07-18T11:43:44;0.10;;;0.10;;
61536;SDS011;48695;53.480;-6.300;2022-07-18T11:46:12;0.10;;;0.10;;
61536;SDS011;48695;53.480;-6.300;2022-07-18T11:48:39;0.10;;;0.10;;
61536;SDS011;48695;53.480;-6.300;2022-07-18T11:51:10;0.10;;;0.10;;
61536;SDS011;48695;53.480;-6.300;2022-07-18T11:53:35;0.20;;;0.20;;
61536;SDS011;48695;53.480;-6.300;2022-07-18T11:56:04;0.20;;;0.20;;
61536;SDS011;48695;53.480;-6.300;2022-07-18T11:58:40;0.10;;;0.10;;
61536;SDS011;48695;53.480;-6.300;2022-07-18T12:01:06;0.10;;;0.10;;
61536;SDS011;48695;53.480;-6.300;2022-07-18T12:03:36;0.10;;;0.10;;
61536;SDS011;48695;53.480;-6.300;2022-07-18T12:06:11;0.10;;;0.10;;
61536;SDS011;48695;53.480;-6.300;2022-07-18T12:08:39;0.10;;;0.10;;
61536;SDS011;48695;53.480;-6.300;2022-07-18T12:21:44;0.13;;;0.13;;
61536;SDS011;48695;53.480;-6.300;2022-07-18T12:32:53;0.10;;;0.10;;
61536;SDS011;48695;53.480;-6.300;2022-07-18T12:37:58;0.20;;;0.20;;
61536;SDS011;48695;53.480;-6.300;2022-07-18T12:40:24;0.20;;;0.20;;
61536;SDS011;48695;53.480;-6.300;2022-07-18T12:43:01;0.20;;;0.20;;
61536;SDS011;48695;53.480;-6.300;2022-07-18T12:45:28;0.20;;;0.20;;
61536;SDS011;48695;53.480;-6.300;2022-07-18T12:47:54;0.10;;;0.10;;
61536;SDS011;48695;53.480;-6.300;2022-07-18T12:50:19;0.20;;;0.20;;
61536;SDS011;48695;53.480;-6.300;2022-07-18T12:52:45;0.20;;;0.20;;
61536;SDS011;48695;53.480;-6.300;2022-07-18T12:55:10;0.20;;;0.20;;
61536;SDS011;48695;53.480;-6.300;2022-07-18T12:57:35;0.20;;;0.20;;
61536;SDS011;48695;53.480;-6.300;2022-07-18T13:00:01;0.17;;;0.17;;
61536;SDS011;48695;53.480;-6.300;2022-07-18T13:02:27;0.20;;;0.20;;
61536;SDS011;48695;53.480;-6.300;2022-07-18T13:04:53;0.10;;;0.10;;
61536;SDS011;48695;53.480;-6.300;2022-07-18T13:07:18;0.10;;;0.10;;
61536;SDS011;48695;53.480;-6.300;2022-07-18T13:09:44;0.10;;;0.10;;
61536;SDS011;48695;53.480;-6.300;2022-07-18T13:12:09;0.20;;;0.20;;
61536;SDS011;48695;53.480;-6.300;2022-07-18T13:14:34;0.10;;;0.10;;
61536;SDS011;48695;53.480;-6.300;2022-07-18T13:17:00;0.20;;;0.20;;
61536;SDS011;48695;53.480;-6.300;2022-07-18T13:19:26;0.10;;;0.10;;
61536;SDS011;48695;53.480;-6.300;2022-07-18T13:21:51;0.15;;;0.15;;
61536;SDS011;48695;53.480;-6.300;2022-07-18T13:24:16;0.20;;;0.20;;
61536;SDS011;48695;53.480;-6.300;2022-07-18T13:26:42;0.20;;;0.20;;
61536;SDS011;48695;53.480;-6.300;2022-07-18T13:29:07;0.13;;;0.13;;
61536;SDS011;48695;53.480;-6.300;2022-07-18T13:31:34;0.20;;;0.20;;
61536;SDS011;48695;53.480;-6.300;2022-07-18T13:34:01;0.15;;;0.15;;
61536;SDS011;48695;53.480;-6.300;2022-07-18T13:36:27;0.17;;;0.17;;
61536;SDS011;48695;53.480;-6.300;2022-07-18T13:38:54;0.20;;;0.20;;
61536;SDS011;48695;53.480;-6.300;2022-07-18T13:41:20;0.10;;;0.10;;
61536;SDS011;48695;53.480;-6.300;2022-07-18T13:43:46;0.10;;;0.10;;
61536;SDS011;48695;53.480;-6.300;2022-07-18T13:46:11;0.20;;;0.20;;
61536;SDS011;48695;53.480;-6.300;2022-07-18T13:48:38;0.20;;;0.20;;
61536;SDS011;48695;53.480;-6.300;2022-07-18T13:51:03;0.25;;;0.25;;
61536;SDS011;48695;53.480;-6.300;2022-07-18T13:53:30;0.10;;;0.10;;
61536;SDS011;48695;53.480;-6.300;2022-07-18T13:55:56;0.20;;;0.20;;
61536;SDS011;48695;53.480;-6.300;2022-07-18T13:58:21;0.10;;;0.10;;
61536;SDS011;48695;53.480;-6.300;2022-07-18T14:00:47;0.10;;;0.10;;
61536;SDS011;48695;53.480;-6.300;2022-07-18T14:03:12;0.25;;;0.25;;
61536;SDS011;48695;53.480;-6.300;2022-07-18T14:05:38;0.20;;;0.20;;
61536;SDS011;48695;53.480;-6.300;2022-07-18T14:08:04;0.20;;;0.20;;
61536;SDS011;48695;53.480;-6.300;2022-07-18T14:10:30;0.10;;;0.10;;
61536;SDS011;48695;53.480;-6.300;2022-07-18T14:12:56;0.10;;;0.10;;
61536;SDS011;48695;53.480;-6.300;2022-07-18T14:15:21;0.10;;;0.10;;
61536;SDS011;48695;53.480;-6.300;2022-07-18T14:17:47;0.20;;;0.20;;
61536;SDS011;48695;53.480;-6.300;2022-07-18T14:20:12;0.20;;;0.20;;
61536;SDS011;48695;53.480;-6.300;2022-07-18T14:22:38;0.20;;;0.20;;
61536;SDS011;48695;53.480;-6.300;2022-07-18T14:25:05;0.10;;;0.10;;
61536;SDS011;48695;53.480;-6.300;2022-07-18T14:27:32;0.30;;;0.30;;
61536;SDS011;48695;53.480;-6.300;2022-07-18T14:29:58;0.20;;;0.20;;
61536;SDS011;48695;53.480;-6.300;2022-07-18T14:32:24;0.20;;;0.20;;
61536;SDS011;48695;53.480;-6.300;2022-07-18T14:34:50;0.20;;;0.20;;
61536;SDS011;48695;53.480;-6.300;2022-07-18T14:37:16;0.20;;;0.20;;
61536;SDS011;48695;53.480;-6.300;2022-07-18T14:39:42;0.20;;;0.20;;
61536;SDS011;48695;53.480;-6.300;2022-07-18T14:42:07;0.20;;;0.20;;
61536;SDS011;48695;53.480;-6.300;2022-07-18T14:44:33;0.20;;;0.20;;
61536;SDS011;48695;53.480;-6.300;2022-07-18T14:46:58;0.20;;;0.20;;
61536;SDS011;48695;53.480;-6.300;2022-07-18T14:49:24;0.20;;;0.20;;
61536;SDS011;48695;53.480;-6.300;2022-07-18T14:51:49;0.20;;;0.20;;
61536;SDS011;48695;53.480;-6.300;2022-07-18T14:54:15;0.20;;;0.20;;
61536;SDS011;48695;53.480;-6.300;2022-07-18T14:56:40;0.20;;;0.20;;
61536;SDS011;48695;53.480;-6.300;2022-07-18T14:59:06;0.10;;;0.10;;
61536;SDS011;48695;53.480;-6.300;2022-07-18T15:01:31;0.20;;;0.20;;
61536;SDS011;48695;53.480;-6.300;2022-07-18T15:03:57;0.20;;;0.20;;
61536;SDS011;48695;53.480;-6.300;2022-07-18T15:06:23;0.22;;;0.22;;
61536;SDS011;48695;53.480;-6.300;2022-07-18T15:08:49;0.20;;;0.20;;
61536;SDS011;48695;53.480;-6.300;2022-07-18T15:11:14;0.20;;;0.20;;
61536;SDS011;48695;53.480;-6.300;2022-07-18T15:13:43;0.20;;;0.20;;
61536;SDS011;48695;53.480;-6.300;2022-07-18T15:16:09;0.20;;;0.20;;
61536;SDS011;48695;53.480;-6.300;2022-07-18T15:18:34;0.10;;;0.10;;
61536;SDS011;48695;53.480;-6.300;2022-07-18T15:21:00;0.20;;;0.20;;
61536;SDS011;48695;53.480;-6.300;2022-07-18T15:23:25;0.15;;;0.15;;
61536;SDS011;48695;53.480;-6.300;2022-07-18T15:25:50;0.10;;;0.10;;
61536;SDS011;48695;53.480;-6.300;2022-07-18T15:28:16;0.10;;;0.10;;
61536;SDS011;48695;53.480;-6.300;2022-07-18T15:30:41;0.10;;;0.10;;
61536;SDS011;48695;53.480;-6.300;2022-07-18T15:33:07;0.10;;;0.10;;
61536;SDS011;48695;53.480;-6.300;2022-07-18T15:35:32;0.10;;;0.10;;